sensor_id;sensor_type;location;lat;lon;timestamp;P1;P2;P0
71858;PMS5003;59713;50.866;4.324;2023-03-23T00:00:07;11;8;
71858;PMS5003;59713;50.866;4.324;2023-03-23T00:01:07;11;8;
71858;PMS5003;59713;50.866;4.324;2023-03-23T00:02:07;11;8;
71858;PMS5003;59713;50.866;4.324;2023-03-23T00:03:07;8;8;
71858;PMS5003;59713;50.866;4.324;2023-03-23T00:04:07;8;8;
71858;PMS5003;59713;50.866;4.324;2023-03-23T00:05:07;8;8;
71858;PMS5003;59713;50.866;4.324;2023-03-23T00:05:07;8;8;
71858;PMS5003;59713;50.866;4.324;2023-03-23T00:06:07;7;7;
71858;PMS5003;59713;50.866;4.324;2023-03-23T00:07:07;7;7;
71858;PMS5003;59713;50.866;4.324;2023-03-23T00:08:07;7;7;
71858;PMS5003;59713;50.866;4.324;2023-03-23T00:09:07;11;9;
71858;PMS5003;59713;50.866;4.324;2023-03-23T00:10:07;11;9;
71858;PMS5003;59713;50.866;4.324;2023-03-23T00:11:07;11;9;
71858;PMS5003;59713;50.866;4.324;2023-03-23T00:12:07;12;9;
71858;PMS5003;59713;50.866;4.324;2023-03-23T00:13:07;12;9;
71858;PMS5003;59713;50.866;4.324;2023-03-23T00:14:07;12;9;
71858;PMS5003;59713;50.866;4.324;2023-03-23T00:14:07;12;9;
71858;PMS5003;59713;50.866;4.324;2023-03-23T00:15:08;16;13;
71858;PMS5003;59713;50.866;4.324;2023-03-23T00:16:07;16;13;
71858;PMS5003;59713;50.866;4.324;2023-03-23T00:17:07;16;13;
71858;PMS5003;59713;50.866;4.324;2023-03-23T00:18:07;10;9;
71858;PMS5003;59713;50.866;4.324;2023-03-23T00:19:07;10;9;
71858;PMS5003;59713;50.866;4.324;2023-03-23T00:20:07;10;9;
71858;PMS5003;59713;50.866;4.324;2023-03-23T00:21:07;16;11;
71858;PMS5003;59713;50.866;4.324;2023-03-23T00:22:07;16;11;
71858;PMS5003;59713;50.866;4.324;2023-03-23T00:23:07;16;11;
71858;PMS5003;59713;50.866;4.324;2023-03-23T00:24:07;15;13;
71858;PMS5003;59713;50.866;4.324;2023-03-23T00:24:08;15;13;
71858;PMS5003;59713;50.866;4.324;2023-03-23T00:25:07;15;13;
71858;PMS5003;59713;50.866;4.324;2023-03-23T00:26:08;15;13;
71858;PMS5003;59713;50.866;4.324;2023-03-23T00:27:07;2;2;
71858;PMS5003;59713;50.866;4.324;2023-03-23T00:28:07;2;2;
71858;PMS5003;59713;50.866;4.324;2023-03-23T00:29:08;2;2;
71858;PMS5003;59713;50.866;4.324;2023-03-23T00:30:07;13;10;
71858;PMS5003;59713;50.866;4.324;2023-03-23T00:31:07;13;10;
71858;PMS5003;59713;50.866;4.324;2023-03-23T00:32:07;13;10;
71858;PMS5003;59713;50.866;4.324;2023-03-23T00:33:07;10;10;
71858;PMS5003;59713;50.866;4.324;2023-03-23T00:33:07;10;10;
71858;PMS5003;59713;50.866;4.324;2023-03-23T00:34:07;10;10;
71858;PMS5003;59713;50.866;4.324;2023-03-23T00:35:07;10;10;
71858;PMS5003;59713;50.866;4.324;2023-03-23T00:36:07;9;9;
71858;PMS5003;59713;50.866;4.324;2023-03-23T00:37:07;9;9;
71858;PMS5003;59713;50.866;4.324;2023-03-23T00:38:07;9;9;
71858;PMS5003;59713;50.866;4.324;2023-03-23T00:39:07;12;12;
71858;PMS5003;59713;50.866;4.324;2023-03-23T00:40:07;12;12;
71858;PMS5003;59713;50.866;4.324;2023-03-23T00:41:07;12;12;
71858;PMS5003;59713;50.866;4.324;2023-03-23T00:42:07;10;10;
71858;PMS5003;59713;50.866;4.324;2023-03-23T00:42:07;10;10;
71858;PMS5003;59713;50.866;4.324;2023-03-23T00:43:07;10;10;
71858;PMS5003;59713;50.866;4.324;2023-03-23T00:44:07;10;10;
71858;PMS5003;59713;50.866;4.324;2023-03-23T00:45:07;10;10;
71858;PMS5003;59713;50.866;4.324;2023-03-23T00:46:07;10;10;
71858;PMS5003;59713;50.866;4.324;2023-03-23T00:47:07;10;10;
71858;PMS5003;59713;50.866;4.324;2023-03-23T00:48:08;9;9;
71858;PMS5003;59713;50.866;4.324;2023-03-23T00:49:07;9;9;
71858;PMS5003;59713;50.866;4.324;2023-03-23T00:50:07;9;9;
71858;PMS5003;59713;50.866;4.324;2023-03-23T00:51:07;12;11;
71858;PMS5003;59713;50.866;4.324;2023-03-23T00:51:07;12;11;
71858;PMS5003;59713;50.866;4.324;2023-03-23T00:52:07;12;11;
71858;PMS5003;59713;50.866;4.324;2023-03-23T00:53:07;12;11;
71858;PMS5003;59713;50.866;4.324;2023-03-23T00:54:07;10;10;
71858;PMS5003;59713;50.866;4.324;2023-03-23T00:55:07;10;10;
71858;PMS5003;59713;50.866;4.324;2023-03-23T00:56:07;10;10;
71858;PMS5003;59713;50.866;4.324;2023-03-23T00:57:07;10;10;
71858;PMS5003;59713;50.866;4.324;2023-03-23T00:58:07;10;10;
71858;PMS5003;59713;50.866;4.324;2023-03-23T00:59:07;10;10;
71858;PMS5003;59713;50.866;4.324;2023-03-23T01:00:07;8;7;
71858;PMS5003;59713;50.866;4.324;2023-03-23T01:01:07;8;7;
71858;PMS5003;59713;50.866;4.324;2023-03-23T01:01:07;8;7;
71858;PMS5003;59713;50.866;4.324;2023-03-23T01:02:07;8;7;
71858;PMS5003;59713;50.866;4.324;2023-03-23T01:03:07;11;11;
71858;PMS5003;59713;50.866;4.324;2023-03-23T01:04:08;11;11;
71858;PMS5003;59713;50.866;4.324;2023-03-23T01:05:08;11;11;
71858;PMS5003;59713;50.866;4.324;2023-03-23T01:06:07;11;8;
71858;PMS5003;59713;50.866;4.324;2023-03-23T01:07:15;11;8;
71858;PMS5003;59713;50.866;4.324;2023-03-23T01:08:07;11;8;
71858;PMS5003;59713;50.866;4.324;2023-03-23T01:09:07;9;8;
71858;PMS5003;59713;50.866;4.324;2023-03-23T01:10:07;9;8;
71858;PMS5003;59713;50.866;4.324;2023-03-23T01:10:07;9;8;
71858;PMS5003;59713;50.866;4.324;2023-03-23T01:11:07;9;8;
71858;PMS5003;59713;50.866;4.324;2023-03-23T01:12:07;11;10;
71858;PMS5003;59713;50.866;4.324;2023-03-23T01:13:07;11;10;
71858;PMS5003;59713;50.866;4.324;2023-03-23T01:14:07;11;10;
71858;PMS5003;59713;50.866;4.324;2023-03-23T01:15:07;10;10;
71858;PMS5003;59713;50.866;4.324;2023-03-23T01:16:07;10;10;
71858;PMS5003;59713;50.866;4.324;2023-03-23T01:17:07;10;10;
71858;PMS5003;59713;50.866;4.324;2023-03-23T01:18:07;9;8;
71858;PMS5003;59713;50.866;4.324;2023-03-23T01:19:07;9;8;
71858;PMS5003;59713;50.866;4.324;2023-03-23T01:19:07;9;8;
71858;PMS5003;59713;50.866;4.324;2023-03-23T01:20:07;9;8;
71858;PMS5003;59713;50.866;4.324;2023-03-23T01:21:08;10;10;
71858;PMS5003;59713;50.866;4.324;2023-03-23T01:22:07;10;10;
71858;PMS5003;59713;50.866;4.324;2023-03-23T01:23:07;10;10;
71858;PMS5003;59713;50.866;4.324;2023-03-23T01:24:07;8;8;
71858;PMS5003;59713;50.866;4.324;2023-03-23T01:25:08;8;8;
71858;PMS5003;59713;50.866;4.324;2023-03-23T01:26:07;8;8;
71858;PMS5003;59713;50.866;4.324;2023-03-23T01:27:07;8;8;
71858;PMS5003;59713;50.866;4.324;2023-03-23T01:28:07;8;8;
71858;PMS5003;59713;50.866;4.324;2023-03-23T01:28:07;8;8;
71858;PMS5003;59713;50.866;4.324;2023-03-23T01:29:07;8;8;
71858;PMS5003;59713;50.866;4.324;2023-03-23T01:30:07;6;6;
71858;PMS5003;59713;50.866;4.324;2023-03-23T01:31:08;6;6;
71858;PMS5003;59713;50.866;4.324;2023-03-23T01:32:07;6;6;
71858;PMS5003;59713;50.866;4.324;2023-03-23T01:33:07;14;12;
71858;PMS5003;59713;50.866;4.324;2023-03-23T01:34:07;14;12;
71858;PMS5003;59713;50.866;4.324;2023-03-23T01:35:07;14;12;
71858;PMS5003;59713;50.866;4.324;2023-03-23T01:36:08;12;10;
71858;PMS5003;59713;50.866;4.324;2023-03-23T01:37:07;12;10;
71858;PMS5003;59713;50.866;4.324;2023-03-23T01:37:08;12;10;
71858;PMS5003;59713;50.866;4.324;2023-03-23T01:38:07;12;10;
71858;PMS5003;59713;50.866;4.324;2023-03-23T01:39:07;10;8;
71858;PMS5003;59713;50.866;4.324;2023-03-23T01:40:07;10;8;
71858;PMS5003;59713;50.866;4.324;2023-03-23T01:41:07;10;8;
71858;PMS5003;59713;50.866;4.324;2023-03-23T01:42:07;10;9;
71858;PMS5003;59713;50.866;4.324;2023-03-23T01:43:09;10;9;
71858;PMS5003;59713;50.866;4.324;2023-03-23T01:45:21;10;10;
71858;PMS5003;59713;50.866;4.324;2023-03-23T01:46:07;10;10;
71858;PMS5003;59713;50.866;4.324;2023-03-23T01:47:07;10;10;
71858;PMS5003;59713;50.866;4.324;2023-03-23T01:47:07;10;10;
71858;PMS5003;59713;50.866;4.324;2023-03-23T01:48:09;8;8;
71858;PMS5003;59713;50.866;4.324;2023-03-23T01:49:08;8;8;
71858;PMS5003;59713;50.866;4.324;2023-03-23T01:50:07;8;8;
71858;PMS5003;59713;50.866;4.324;2023-03-23T01:51:08;9;9;
71858;PMS5003;59713;50.866;4.324;2023-03-23T01:52:07;9;9;
71858;PMS5003;59713;50.866;4.324;2023-03-23T01:53:07;9;9;
71858;PMS5003;59713;50.866;4.324;2023-03-23T01:54:08;9;9;
71858;PMS5003;59713;50.866;4.324;2023-03-23T01:55:07;9;9;
71858;PMS5003;59713;50.866;4.324;2023-03-23T01:56:07;9;9;
71858;PMS5003;59713;50.866;4.324;2023-03-23T01:56:07;9;9;
71858;PMS5003;59713;50.866;4.324;2023-03-23T01:57:10;9;8;
71858;PMS5003;59713;50.866;4.324;2023-03-23T01:58:07;9;8;
71858;PMS5003;59713;50.866;4.324;2023-03-23T01:59:07;9;8;
71858;PMS5003;59713;50.866;4.324;2023-03-23T02:00:12;10;9;
71858;PMS5003;59713;50.866;4.324;2023-03-23T02:01:07;10;9;
71858;PMS5003;59713;50.866;4.324;2023-03-23T02:02:07;10;9;
71858;PMS5003;59713;50.866;4.324;2023-03-23T02:03:07;9;9;
71858;PMS5003;59713;50.866;4.324;2023-03-23T02:04:07;9;9;
71858;PMS5003;59713;50.866;4.324;2023-03-23T02:05:08;9;9;
71858;PMS5003;59713;50.866;4.324;2023-03-23T02:06:07;9;8;
71858;PMS5003;59713;50.866;4.324;2023-03-23T02:06:07;9;8;
71858;PMS5003;59713;50.866;4.324;2023-03-23T02:07:07;9;8;
71858;PMS5003;59713;50.866;4.324;2023-03-23T02:08:10;9;8;
71858;PMS5003;59713;50.866;4.324;2023-03-23T02:09:07;9;7;
71858;PMS5003;59713;50.866;4.324;2023-03-23T02:10:07;9;7;
71858;PMS5003;59713;50.866;4.324;2023-03-23T02:11:11;9;7;
71858;PMS5003;59713;50.866;4.324;2023-03-23T02:12:07;7;7;
71858;PMS5003;59713;50.866;4.324;2023-03-23T02:13:07;7;7;
71858;PMS5003;59713;50.866;4.324;2023-03-23T02:14:07;7;7;
71858;PMS5003;59713;50.866;4.324;2023-03-23T02:15:08;7;5;
71858;PMS5003;59713;50.866;4.324;2023-03-23T02:15:08;7;5;
71858;PMS5003;59713;50.866;4.324;2023-03-23T02:16:08;7;5;
71858;PMS5003;59713;50.866;4.324;2023-03-23T02:17:08;7;5;
71858;PMS5003;59713;50.866;4.324;2023-03-23T02:18:08;7;5;
71858;PMS5003;59713;50.866;4.324;2023-03-23T02:19:11;7;5;
71858;PMS5003;59713;50.866;4.324;2023-03-23T02:20:12;7;5;
71858;PMS5003;59713;50.866;4.324;2023-03-23T02:21:13;5;5;
71858;PMS5003;59713;50.866;4.324;2023-03-23T02:22:13;5;5;
71858;PMS5003;59713;50.866;4.324;2023-03-23T02:23:11;5;5;
71858;PMS5003;59713;50.866;4.324;2023-03-23T02:24:14;6;5;
71858;PMS5003;59713;50.866;4.324;2023-03-23T02:25:15;6;5;
71858;PMS5003;59713;50.866;4.324;2023-03-23T02:25:18;6;5;
71858;PMS5003;59713;50.866;4.324;2023-03-23T02:26:11;6;5;
71858;PMS5003;59713;50.866;4.324;2023-03-23T02:27:08;6;6;
71858;PMS5003;59713;50.866;4.324;2023-03-23T02:28:12;6;6;
71858;PMS5003;59713;50.866;4.324;2023-03-23T02:29:20;6;6;
71858;PMS5003;59713;50.866;4.324;2023-03-23T02:30:10;5;4;
71858;PMS5003;59713;50.866;4.324;2023-03-23T02:31:12;5;4;
71858;PMS5003;59713;50.866;4.324;2023-03-23T02:32:10;5;4;
71858;PMS5003;59713;50.866;4.324;2023-03-23T02:34:07;5;4;
71858;PMS5003;59713;50.866;4.324;2023-03-23T02:34:07;5;4;
71858;PMS5003;59713;50.866;4.324;2023-03-23T02:35:07;5;4;
71858;PMS5003;59713;50.866;4.324;2023-03-23T02:36:10;3;3;
71858;PMS5003;59713;50.866;4.324;2023-03-23T02:37:08;3;3;
71858;PMS5003;59713;50.866;4.324;2023-03-23T02:38:08;3;3;
71858;PMS5003;59713;50.866;4.324;2023-03-23T02:39:08;6;5;
71858;PMS5003;59713;50.866;4.324;2023-03-23T02:40:08;6;5;
71858;PMS5003;59713;50.866;4.324;2023-03-23T02:41:09;6;5;
71858;PMS5003;59713;50.866;4.324;2023-03-23T02:42:07;7;3;
71858;PMS5003;59713;50.866;4.324;2023-03-23T02:43:08;7;3;
71858;PMS5003;59713;50.866;4.324;2023-03-23T02:43:08;7;3;
71858;PMS5003;59713;50.866;4.324;2023-03-23T02:44:07;7;3;
71858;PMS5003;59713;50.866;4.324;2023-03-23T02:45:08;5;3;
71858;PMS5003;59713;50.866;4.324;2023-03-23T02:46:10;5;3;
71858;PMS5003;59713;50.866;4.324;2023-03-23T02:47:07;5;3;
71858;PMS5003;59713;50.866;4.324;2023-03-23T02:48:07;3;1;
71858;PMS5003;59713;50.866;4.324;2023-03-23T02:49:07;3;1;
71858;PMS5003;59713;50.866;4.324;2023-03-23T02:50:09;3;1;
71858;PMS5003;59713;50.866;4.324;2023-03-23T02:51:07;3;3;
71858;PMS5003;59713;50.866;4.324;2023-03-23T02:52:08;3;3;
71858;PMS5003;59713;50.866;4.324;2023-03-23T02:53:07;3;3;
71858;PMS5003;59713;50.866;4.324;2023-03-23T02:53:08;3;3;
71858;PMS5003;59713;50.866;4.324;2023-03-23T02:54:07;3;2;
71858;PMS5003;59713;50.866;4.324;2023-03-23T02:55:07;3;2;
71858;PMS5003;59713;50.866;4.324;2023-03-23T02:56:07;3;2;
71858;PMS5003;59713;50.866;4.324;2023-03-23T02:57:07;2;2;
71858;PMS5003;59713;50.866;4.324;2023-03-23T02:58:09;2;2;
71858;PMS5003;59713;50.866;4.324;2023-03-23T02:59:07;2;2;
71858;PMS5003;59713;50.866;4.324;2023-03-23T03:00:08;4;2;
71858;PMS5003;59713;50.866;4.324;2023-03-23T03:01:14;4;2;
71858;PMS5003;59713;50.866;4.324;2023-03-23T03:02:07;4;2;
71858;PMS5003;59713;50.866;4.324;2023-03-23T03:02:07;4;2;
71858;PMS5003;59713;50.866;4.324;2023-03-23T03:03:10;6;2;
71858;PMS5003;59713;50.866;4.324;2023-03-23T03:04:09;6;2;
71858;PMS5003;59713;50.866;4.324;2023-03-23T03:05:09;6;2;
71858;PMS5003;59713;50.866;4.324;2023-03-23T03:06:09;3;1;
71858;PMS5003;59713;50.866;4.324;2023-03-23T03:07:23;3;1;
71858;PMS5003;59713;50.866;4.324;2023-03-23T03:08:10;3;1;
71858;PMS5003;59713;50.866;4.324;2023-03-23T03:09:09;4;2;
71858;PMS5003;59713;50.866;4.324;2023-03-23T03:10:09;4;2;
71858;PMS5003;59713;50.866;4.324;2023-03-23T03:11:08;4;2;
71858;PMS5003;59713;50.866;4.324;2023-03-23T03:11:08;4;2;
71858;PMS5003;59713;50.866;4.324;2023-03-23T03:12:08;3;1;
71858;PMS5003;59713;50.866;4.324;2023-03-23T03:13:08;3;1;
71858;PMS5003;59713;50.866;4.324;2023-03-23T03:14:08;3;1;
71858;PMS5003;59713;50.866;4.324;2023-03-23T03:15:10;2;2;
71858;PMS5003;59713;50.866;4.324;2023-03-23T03:16:07;2;2;
71858;PMS5003;59713;50.866;4.324;2023-03-23T03:17:08;2;2;
71858;PMS5003;59713;50.866;4.324;2023-03-23T03:18:09;2;2;
71858;PMS5003;59713;50.866;4.324;2023-03-23T03:19:08;2;2;
71858;PMS5003;59713;50.866;4.324;2023-03-23T03:20:07;2;2;
71858;PMS5003;59713;50.866;4.324;2023-03-23T03:20:07;2;2;
71858;PMS5003;59713;50.866;4.324;2023-03-23T03:21:07;3;2;
71858;PMS5003;59713;50.866;4.324;2023-03-23T03:22:07;3;2;
71858;PMS5003;59713;50.866;4.324;2023-03-23T03:23:07;3;2;
71858;PMS5003;59713;50.866;4.324;2023-03-23T03:24:07;2;2;
71858;PMS5003;59713;50.866;4.324;2023-03-23T03:25:07;2;2;
71858;PMS5003;59713;50.866;4.324;2023-03-23T03:26:07;2;2;
71858;PMS5003;59713;50.866;4.324;2023-03-23T03:27:10;2;2;
71858;PMS5003;59713;50.866;4.324;2023-03-23T03:28:07;2;2;
71858;PMS5003;59713;50.866;4.324;2023-03-23T03:29:07;2;2;
71858;PMS5003;59713;50.866;4.324;2023-03-23T03:29:07;2;2;
71858;PMS5003;59713;50.866;4.324;2023-03-23T03:30:08;2;2;
71858;PMS5003;59713;50.866;4.324;2023-03-23T03:31:07;2;2;
71858;PMS5003;59713;50.866;4.324;2023-03-23T03:32:08;2;2;
71858;PMS5003;59713;50.866;4.324;2023-03-23T03:33:07;3;3;
71858;PMS5003;59713;50.866;4.324;2023-03-23T03:34:09;3;3;
71858;PMS5003;59713;50.866;4.324;2023-03-23T03:35:07;3;3;
71858;PMS5003;59713;50.866;4.324;2023-03-23T03:36:07;7;4;
71858;PMS5003;59713;50.866;4.324;2023-03-23T03:37:07;7;4;
71858;PMS5003;59713;50.866;4.324;2023-03-23T03:38:08;7;4;
71858;PMS5003;59713;50.866;4.324;2023-03-23T03:38:08;7;4;
71858;PMS5003;59713;50.866;4.324;2023-03-23T03:39:08;1;1;
71858;PMS5003;59713;50.866;4.324;2023-03-23T03:40:09;1;1;
71858;PMS5003;59713;50.866;4.324;2023-03-23T03:41:07;1;1;
71858;PMS5003;59713;50.866;4.324;2023-03-23T03:42:07;2;2;
71858;PMS5003;59713;50.866;4.324;2023-03-23T03:43:07;2;2;
71858;PMS5003;59713;50.866;4.324;2023-03-23T03:44:07;2;2;
71858;PMS5003;59713;50.866;4.324;2023-03-23T03:45:08;3;1;
71858;PMS5003;59713;50.866;4.324;2023-03-23T03:46:07;3;1;
71858;PMS5003;59713;50.866;4.324;2023-03-23T03:47:07;3;1;
71858;PMS5003;59713;50.866;4.324;2023-03-23T03:47:07;3;1;
71858;PMS5003;59713;50.866;4.324;2023-03-23T03:48:07;3;2;
71858;PMS5003;59713;50.866;4.324;2023-03-23T03:49:08;3;2;
71858;PMS5003;59713;50.866;4.324;2023-03-23T03:50:07;3;2;
71858;PMS5003;59713;50.866;4.324;2023-03-23T03:51:07;2;0;
71858;PMS5003;59713;50.866;4.324;2023-03-23T03:52:07;2;0;
71858;PMS5003;59713;50.866;4.324;2023-03-23T03:53:07;2;0;
71858;PMS5003;59713;50.866;4.324;2023-03-23T03:54:08;3;2;
71858;PMS5003;59713;50.866;4.324;2023-03-23T03:55:07;3;2;
71858;PMS5003;59713;50.866;4.324;2023-03-23T03:56:07;3;2;
71858;PMS5003;59713;50.866;4.324;2023-03-23T03:57:07;2;1;
71858;PMS5003;59713;50.866;4.324;2023-03-23T03:58:07;2;1;
71858;PMS5003;59713;50.866;4.324;2023-03-23T03:59:07;2;1;
71858;PMS5003;59713;50.866;4.324;2023-03-23T04:00:08;1;1;
71858;PMS5003;59713;50.866;4.324;2023-03-23T04:01:07;1;1;
71858;PMS5003;59713;50.866;4.324;2023-03-23T04:02:07;1;1;
71858;PMS5003;59713;50.866;4.324;2023-03-23T04:03:07;2;2;
71858;PMS5003;59713;50.866;4.324;2023-03-23T04:04:07;2;2;
71858;PMS5003;59713;50.866;4.324;2023-03-23T04:05:07;2;2;
71858;PMS5003;59713;50.866;4.324;2023-03-23T04:05:07;2;2;
71858;PMS5003;59713;50.866;4.324;2023-03-23T04:06:07;3;1;
71858;PMS5003;59713;50.866;4.324;2023-03-23T04:07:07;3;1;
71858;PMS5003;59713;50.866;4.324;2023-03-23T04:08:07;3;1;
71858;PMS5003;59713;50.866;4.324;2023-03-23T04:09:07;3;1;
71858;PMS5003;59713;50.866;4.324;2023-03-23T04:10:08;3;1;
71858;PMS5003;59713;50.866;4.324;2023-03-23T04:11:07;3;1;
71858;PMS5003;59713;50.866;4.324;2023-03-23T04:12:07;7;4;
71858;PMS5003;59713;50.866;4.324;2023-03-23T04:13:07;7;4;
71858;PMS5003;59713;50.866;4.324;2023-03-23T04:14:07;7;4;
71858;PMS5003;59713;50.866;4.324;2023-03-23T04:14:07;7;4;
71858;PMS5003;59713;50.866;4.324;2023-03-23T04:15:07;6;2;
71858;PMS5003;59713;50.866;4.324;2023-03-23T04:16:07;6;2;
71858;PMS5003;59713;50.866;4.324;2023-03-23T04:17:07;6;2;
71858;PMS5003;59713;50.866;4.324;2023-03-23T04:18:07;1;1;
71858;PMS5003;59713;50.866;4.324;2023-03-23T04:19:07;1;1;
71858;PMS5003;59713;50.866;4.324;2023-03-23T04:20:07;1;1;
71858;PMS5003;59713;50.866;4.324;2023-03-23T04:21:07;2;1;
71858;PMS5003;59713;50.866;4.324;2023-03-23T04:22:07;2;1;
71858;PMS5003;59713;50.866;4.324;2023-03-23T04:23:07;2;1;
71858;PMS5003;59713;50.866;4.324;2023-03-23T04:23:07;2;1;
71858;PMS5003;59713;50.866;4.324;2023-03-23T04:24:07;5;2;
71858;PMS5003;59713;50.866;4.324;2023-03-23T04:25:07;5;2;
71858;PMS5003;59713;50.866;4.324;2023-03-23T04:26:07;5;2;
71858;PMS5003;59713;50.866;4.324;2023-03-23T04:27:07;2;2;
71858;PMS5003;59713;50.866;4.324;2023-03-23T04:28:07;2;2;
71858;PMS5003;59713;50.866;4.324;2023-03-23T04:29:07;2;2;
71858;PMS5003;59713;50.866;4.324;2023-03-23T04:30:07;0;0;
71858;PMS5003;59713;50.866;4.324;2023-03-23T04:31:07;0;0;
71858;PMS5003;59713;50.866;4.324;2023-03-23T04:32:09;0;0;
71858;PMS5003;59713;50.866;4.324;2023-03-23T04:32:09;0;0;
71858;PMS5003;59713;50.866;4.324;2023-03-23T04:33:07;2;2;
71858;PMS5003;59713;50.866;4.324;2023-03-23T04:34:07;2;2;
71858;PMS5003;59713;50.866;4.324;2023-03-23T04:35:08;2;2;
71858;PMS5003;59713;50.866;4.324;2023-03-23T04:36:07;3;3;
71858;PMS5003;59713;50.866;4.324;2023-03-23T04:37:07;3;3;
71858;PMS5003;59713;50.866;4.324;2023-03-23T04:38:09;3;3;
71858;PMS5003;59713;50.866;4.324;2023-03-23T04:39:08;3;1;
71858;PMS5003;59713;50.866;4.324;2023-03-23T04:40:08;3;1;
71858;PMS5003;59713;50.866;4.324;2023-03-23T04:41:07;3;1;
71858;PMS5003;59713;50.866;4.324;2023-03-23T04:41:07;3;1;
71858;PMS5003;59713;50.866;4.324;2023-03-23T04:42:07;2;2;
71858;PMS5003;59713;50.866;4.324;2023-03-23T04:43:07;2;2;
71858;PMS5003;59713;50.866;4.324;2023-03-23T04:44:07;2;2;
71858;PMS5003;59713;50.866;4.324;2023-03-23T04:45:07;1;1;
71858;PMS5003;59713;50.866;4.324;2023-03-23T04:46:07;1;1;
71858;PMS5003;59713;50.866;4.324;2023-03-23T04:47:07;1;1;
71858;PMS5003;59713;50.866;4.324;2023-03-23T04:48:07;1;1;
71858;PMS5003;59713;50.866;4.324;2023-03-23T04:49:07;1;1;
71858;PMS5003;59713;50.866;4.324;2023-03-23T04:50:08;1;1;
71858;PMS5003;59713;50.866;4.324;2023-03-23T04:50:08;1;1;
71858;PMS5003;59713;50.866;4.324;2023-03-23T04:51:07;4;3;
71858;PMS5003;59713;50.866;4.324;2023-03-23T04:52:07;4;3;
71858;PMS5003;59713;50.866;4.324;2023-03-23T04:53:07;4;3;
71858;PMS5003;59713;50.866;4.324;2023-03-23T04:54:07;2;2;
71858;PMS5003;59713;50.866;4.324;2023-03-23T04:55:08;2;2;
71858;PMS5003;59713;50.866;4.324;2023-03-23T04:56:07;2;2;
71858;PMS5003;59713;50.866;4.324;2023-03-23T04:57:07;6;1;
71858;PMS5003;59713;50.866;4.324;2023-03-23T04:58:07;6;1;
71858;PMS5003;59713;50.866;4.324;2023-03-23T04:59:07;6;1;
71858;PMS5003;59713;50.866;4.324;2023-03-23T04:59:07;6;1;
71858;PMS5003;59713;50.866;4.324;2023-03-23T05:00:08;1;1;
71858;PMS5003;59713;50.866;4.324;2023-03-23T05:01:07;1;1;
71858;PMS5003;59713;50.866;4.324;2023-03-23T05:02:07;1;1;
71858;PMS5003;59713;50.866;4.324;2023-03-23T05:03:07;2;0;
71858;PMS5003;59713;50.866;4.324;2023-03-23T05:04:07;2;0;
71858;PMS5003;59713;50.866;4.324;2023-03-23T05:05:08;2;0;
71858;PMS5003;59713;50.866;4.324;2023-03-23T05:06:07;2;1;
71858;PMS5003;59713;50.866;4.324;2023-03-23T05:07:07;2;1;
71858;PMS5003;59713;50.866;4.324;2023-03-23T05:08:07;2;1;
71858;PMS5003;59713;50.866;4.324;2023-03-23T05:08:07;2;1;
71858;PMS5003;59713;50.866;4.324;2023-03-23T05:09:07;1;1;
71858;PMS5003;59713;50.866;4.324;2023-03-23T05:10:08;1;1;
71858;PMS5003;59713;50.866;4.324;2023-03-23T05:11:07;1;1;
71858;PMS5003;59713;50.866;4.324;2023-03-23T05:12:08;1;1;
71858;PMS5003;59713;50.866;4.324;2023-03-23T05:13:07;1;1;
71858;PMS5003;59713;50.866;4.324;2023-03-23T05:14:07;1;1;
71858;PMS5003;59713;50.866;4.324;2023-03-23T05:15:08;6;3;
71858;PMS5003;59713;50.866;4.324;2023-03-23T05:16:07;6;3;
71858;PMS5003;59713;50.866;4.324;2023-03-23T05:17:07;6;3;
71858;PMS5003;59713;50.866;4.324;2023-03-23T05:17:08;6;3;
71858;PMS5003;59713;50.866;4.324;2023-03-23T05:18:09;0;0;
71858;PMS5003;59713;50.866;4.324;2023-03-23T05:19:07;0;0;
71858;PMS5003;59713;50.866;4.324;2023-03-23T05:20:08;0;0;
71858;PMS5003;59713;50.866;4.324;2023-03-23T05:21:07;3;2;
71858;PMS5003;59713;50.866;4.324;2023-03-23T05:22:07;3;2;
71858;PMS5003;59713;50.866;4.324;2023-03-23T05:23:18;3;2;
71858;PMS5003;59713;50.866;4.324;2023-03-23T05:24:07;3;2;
71858;PMS5003;59713;50.866;4.324;2023-03-23T05:25:08;3;2;
71858;PMS5003;59713;50.866;4.324;2023-03-23T05:26:07;3;2;
71858;PMS5003;59713;50.866;4.324;2023-03-23T05:26:07;3;2;
71858;PMS5003;59713;50.866;4.324;2023-03-23T05:27:07;2;1;
71858;PMS5003;59713;50.866;4.324;2023-03-23T05:28:08;2;1;
71858;PMS5003;59713;50.866;4.324;2023-03-23T05:29:07;2;1;
71858;PMS5003;59713;50.866;4.324;2023-03-23T05:30:07;4;2;
71858;PMS5003;59713;50.866;4.324;2023-03-23T05:31:07;4;2;
71858;PMS5003;59713;50.866;4.324;2023-03-23T05:32:07;4;2;
71858;PMS5003;59713;50.866;4.324;2023-03-23T05:33:07;2;2;
71858;PMS5003;59713;50.866;4.324;2023-03-23T05:34:07;2;2;
71858;PMS5003;59713;50.866;4.324;2023-03-23T05:35:09;2;2;
71858;PMS5003;59713;50.866;4.324;2023-03-23T05:35:09;2;2;
71858;PMS5003;59713;50.866;4.324;2023-03-23T05:36:07;3;2;
71858;PMS5003;59713;50.866;4.324;2023-03-23T05:37:07;3;2;
71858;PMS5003;59713;50.866;4.324;2023-03-23T05:38:07;3;2;
71858;PMS5003;59713;50.866;4.324;2023-03-23T05:39:07;1;1;
71858;PMS5003;59713;50.866;4.324;2023-03-23T05:40:07;1;1;
71858;PMS5003;59713;50.866;4.324;2023-03-23T05:41:07;1;1;
71858;PMS5003;59713;50.866;4.324;2023-03-23T05:42:07;4;2;
71858;PMS5003;59713;50.866;4.324;2023-03-23T05:43:07;4;2;
71858;PMS5003;59713;50.866;4.324;2023-03-23T05:44:08;4;2;
71858;PMS5003;59713;50.866;4.324;2023-03-23T05:44:08;4;2;
71858;PMS5003;59713;50.866;4.324;2023-03-23T05:45:08;5;3;
71858;PMS5003;59713;50.866;4.324;2023-03-23T05:46:07;5;3;
71858;PMS5003;59713;50.866;4.324;2023-03-23T05:47:07;5;3;
71858;PMS5003;59713;50.866;4.324;2023-03-23T05:48:07;2;2;
71858;PMS5003;59713;50.866;4.324;2023-03-23T05:49:08;2;2;
71858;PMS5003;59713;50.866;4.324;2023-03-23T05:50:08;2;2;
71858;PMS5003;59713;50.866;4.324;2023-03-23T05:51:07;3;2;
71858;PMS5003;59713;50.866;4.324;2023-03-23T05:52:07;3;2;
71858;PMS5003;59713;50.866;4.324;2023-03-23T05:53:07;3;2;
71858;PMS5003;59713;50.866;4.324;2023-03-23T05:53:07;3;2;
71858;PMS5003;59713;50.866;4.324;2023-03-23T05:54:07;0;0;
71858;PMS5003;59713;50.866;4.324;2023-03-23T05:55:08;0;0;
71858;PMS5003;59713;50.866;4.324;2023-03-23T05:56:07;0;0;
71858;PMS5003;59713;50.866;4.324;2023-03-23T05:57:07;2;2;
71858;PMS5003;59713;50.866;4.324;2023-03-23T05:58:07;2;2;
71858;PMS5003;59713;50.866;4.324;2023-03-23T05:59:07;2;2;
71858;PMS5003;59713;50.866;4.324;2023-03-23T06:00:08;7;2;
71858;PMS5003;59713;50.866;4.324;2023-03-23T06:01:07;7;2;
71858;PMS5003;59713;50.866;4.324;2023-03-23T06:02:07;7;2;
71858;PMS5003;59713;50.866;4.324;2023-03-23T06:02:07;7;2;
71858;PMS5003;59713;50.866;4.324;2023-03-23T06:03:07;2;2;
71858;PMS5003;59713;50.866;4.324;2023-03-23T06:04:09;2;2;
71858;PMS5003;59713;50.866;4.324;2023-03-23T06:05:07;2;2;
71858;PMS5003;59713;50.866;4.324;2023-03-23T06:06:08;4;3;
71858;PMS5003;59713;50.866;4.324;2023-03-23T06:07:07;4;3;
71858;PMS5003;59713;50.866;4.324;2023-03-23T06:08:07;4;3;
71858;PMS5003;59713;50.866;4.324;2023-03-23T06:09:07;5;2;
71858;PMS5003;59713;50.866;4.324;2023-03-23T06:10:08;5;2;
71858;PMS5003;59713;50.866;4.324;2023-03-23T06:11:07;5;2;
71858;PMS5003;59713;50.866;4.324;2023-03-23T06:11:07;5;2;